Time;durP1;ratioP1;P1;durP2;ratioP2;P2;SDS_P1;SDS_P2;PMS_P1;PMS_P2;Temp;Humidity;BMP_temperature;BMP_pressure;BME280_temperature;BME280_humidity;BME280_pressure;Samples;Min_cycle;Max_cycle;Signal;HPM_P1;HPM_P2
2021/12/27 00:01:10;;;;;;;58.47;34.15;;;;;;;;;;5051058;28;20035;-69
2021/12/27 00:03:37;;;;;;;62.88;37.15;;;;;;;;;;5049698;28;20033;-71
2021/12/27 00:06:04;;;;;;;62.92;36.13;;;;;;;;;;5051165;28;20029;-69
2021/12/27 00:08:30;;;;;;;76.70;39.90;;;;;;;;;;5051133;28;20075;-69
2021/12/27 00:10:56;;;;;;;71.20;39.92;;;;;;;;;;5051179;28;20057;-69
2021/12/27 00:13:22;;;;;;;58.50;34.15;;;;;;;;;;5050756;28;20091;-68
2021/12/27 00:15:47;;;;;;;52.15;31.80;;;;;;;;;;5051050;28;20036;-69
2021/12/27 00:18:13;;;;;;;61.10;32.53;;;;;;;;;;5053235;28;20065;-71
2021/12/27 00:20:39;;;;;;;51.67;30.73;;;;;;;;;;5054626;28;20025;-70
2021/12/27 00:23:05;;;;;;;66.40;31.80;;;;;;;;;;5054218;28;20033;-70
2021/12/27 00:25:31;;;;;;;49.88;27.65;;;;;;;;;;5054054;28;20025;-69
2021/12/27 00:27:57;;;;;;;43.33;25.92;;;;;;;;;;5039413;28;20045;-69
2021/12/27 00:30:23;;;;;;;40.03;24.67;;;;;;;;;;5034251;28;20048;-71
2021/12/27 00:32:51;;;;;;;39.58;23.02;;;;;;;;;;5034348;28;20155;-69
2021/12/27 00:35:25;;;;;;;36.70;21.92;;;;;;;;;;5034145;28;20061;-68
2021/12/27 00:37:52;;;;;;;33.00;20.80;;;;;;;;;;5034404;28;20132;-69
2021/12/27 00:40:18;;;;;;;35.67;19.55;;;;;;;;;;5034418;28;20483;-69
2021/12/27 00:42:44;;;;;;;30.42;17.10;;;;;;;;;;5034106;28;20123;-69
2021/12/27 00:45:11;;;;;;;32.75;16.23;;;;;;;;;;5032090;28;20034;-69
2021/12/27 00:47:38;;;;;;;23.67;14.02;;;;;;;;;;5034404;28;20045;-67
2021/12/27 00:50:05;;;;;;;24.95;14.35;;;;;;;;;;5034002;28;20029;-69
2021/12/27 00:52:32;;;;;;;21.88;12.13;;;;;;;;;;5033790;28;20033;-71
2021/12/27 00:54:59;;;;;;;28.52;12.15;;;;;;;;;;5034000;28;20025;-69
2021/12/27 00:57:25;;;;;;;28.40;15.40;;;;;;;;;;5037199;28;20118;-68
2021/12/27 00:59:50;;;;;;;27.50;14.80;;;;;;;;;;5033964;28;20472;-69
2021/12/27 01:02:16;;;;;;;19.60;10.95;;;;;;;;;;5033698;28;20037;-67
2021/12/27 01:04:42;;;;;;;19.15;10.82;;;;;;;;;;5032602;28;20458;-69
2021/12/27 01:07:08;;;;;;;18.73;10.63;;;;;;;;;;5037665;28;20073;-67
2021/12/27 01:15:09;;;;;;;22.88;11.60;;;;;;;;;;5033611;28;20042;-68
2021/12/27 01:17:41;;;;;;;16.95;9.82;;;;;;;;;;5033582;28;20029;-68
2021/12/27 01:20:11;;;;;;;18.40;9.63;;;;;;;;;;5033710;28;20488;-67
2021/12/27 01:22:37;;;;;;;18.63;10.02;;;;;;;;;;5033723;28;20033;-68
2021/12/27 01:25:06;;;;;;;18.98;10.60;;;;;;;;;;5033318;28;20033;-66
2021/12/27 01:27:33;;;;;;;16.90;9.93;;;;;;;;;;5033216;28;20041;-67
2021/12/27 01:29:59;;;;;;;17.42;10.63;;;;;;;;;;5032595;28;20064;-70
2021/12/27 01:32:29;;;;;;;17.15;10.25;;;;;;;;;;5033069;28;20461;-69
2021/12/27 01:34:55;;;;;;;15.07;9.80;;;;;;;;;;5033585;28;20037;-71
2021/12/27 01:37:21;;;;;;;20.60;10.23;;;;;;;;;;5033506;28;20132;-64
2021/12/27 01:39:47;;;;;;;17.50;10.43;;;;;;;;;;5033045;28;20036;-72
2021/12/27 01:42:13;;;;;;;19.73;11.45;;;;;;;;;;5033101;28;20022;-70
2021/12/27 01:44:40;;;;;;;23.27;12.02;;;;;;;;;;5033283;28;20356;-70
2021/12/27 01:47:07;;;;;;;17.55;10.35;;;;;;;;;;5034725;28;20042;-68
2021/12/27 01:49:32;;;;;;;21.45;11.95;;;;;;;;;;5032647;28;20168;-70
2021/12/27 01:51:59;;;;;;;17.73;11.25;;;;;;;;;;5032912;28;20120;-71
2021/12/27 01:54:25;;;;;;;16.55;10.20;;;;;;;;;;5032734;28;20503;-71
2021/12/27 01:56:52;;;;;;;22.05;10.68;;;;;;;;;;5032276;28;20109;-69
2021/12/27 01:59:18;;;;;;;20.55;12.30;;;;;;;;;;5031528;28;20115;-69
2021/12/27 02:01:44;;;;;;;23.77;13.57;;;;;;;;;;5038015;28;20028;-70
2021/12/27 02:04:09;;;;;;;22.95;13.15;;;;;;;;;;5050634;28;20033;-67
2021/12/27 02:06:35;;;;;;;27.55;14.68;;;;;;;;;;5052501;28;20071;-68
2021/12/27 02:09:04;;;;;;;22.73;12.65;;;;;;;;;;5052614;28;20378;-69
2021/12/27 02:11:34;;;;;;;22.10;13.30;;;;;;;;;;5052551;28;20021;-68
2021/12/27 02:14:05;;;;;;;24.38;12.95;;;;;;;;;;5052614;28;20086;-69
2021/12/27 02:16:34;;;;;;;22.25;14.48;;;;;;;;;;5052345;28;20044;-70
2021/12/27 02:19:00;;;;;;;20.45;11.80;;;;;;;;;;5052021;28;20083;-69
2021/12/27 02:21:26;;;;;;;37.60;23.80;;;;;;;;;;5051975;28;20033;-68
2021/12/27 02:23:54;;;;;;;41.92;24.65;;;;;;;;;;5052131;28;20498;-69
2021/12/27 02:26:21;;;;;;;34.80;22.15;;;;;;;;;;5020570;28;20045;-68
2021/12/27 02:28:48;;;;;;;36.60;22.73;;;;;;;;;;5031458;28;20116;-69
2021/12/27 02:31:16;;;;;;;37.42;22.55;;;;;;;;;;5031848;28;20041;-68
2021/12/27 02:33:42;;;;;;;35.33;22.70;;;;;;;;;;5019206;28;20057;-69
2021/12/27 02:36:11;;;;;;;35.80;23.13;;;;;;;;;;5031229;28;20045;-70
2021/12/27 02:38:40;;;;;;;39.20;24.92;;;;;;;;;;5032064;28;20029;-69
2021/12/27 02:41:08;;;;;;;36.08;22.60;;;;;;;;;;5032011;28;20098;-71
2021/12/27 02:43:35;;;;;;;43.55;25.67;;;;;;;;;;5031972;28;20352;-71
2021/12/27 02:46:04;;;;;;;44.72;26.42;;;;;;;;;;5032020;28;20148;-69
2021/12/27 02:48:38;;;;;;;49.78;26.42;;;;;;;;;;5031903;28;20495;-69
2021/12/27 02:51:03;;;;;;;;;;;;;;;;;;5032112;28;20400;-70
2021/12/27 02:53:29;;;;;;;42.38;24.50;;;;;;;;;;5031934;28;20000;-71
2021/12/27 02:55:56;;;;;;;38.97;23.08;;;;;;;;;;5031693;28;20075;-70
2021/12/27 02:58:24;;;;;;;34.40;19.98;;;;;;;;;;5044310;28;20071;-69
2021/12/27 03:01:01;;;;;;;34.25;21.17;;;;;;;;;;5031825;28;20049;-68
2021/12/27 03:03:28;;;;;;;36.83;21.77;;;;;;;;;;5043321;28;20123;-68
2021/12/27 03:05:54;;;;;;;34.53;22.45;;;;;;;;;;5051563;28;20025;-68
2021/12/27 03:08:22;;;;;;;34.10;21.45;;;;;;;;;;5035752;28;20479;-69
2021/12/27 03:10:50;;;;;;;30.20;19.10;;;;;;;;;;5037183;28;20059;-70
2021/12/27 03:13:19;;;;;;;36.50;24.08;;;;;;;;;;5051704;28;20029;-69
2021/12/27 03:15:45;;;;;;;33.13;22.08;;;;;;;;;;5051595;28;20047;-69
2021/12/27 03:18:12;;;;;;;37.35;22.73;;;;;;;;;;5051530;28;20091;-67
2021/12/27 03:20:38;;;;;;;34.97;18.85;;;;;;;;;;5051397;28;20068;-70
2021/12/27 03:23:04;;;;;;;34.03;21.00;;;;;;;;;;5032835;28;20519;-69
2021/12/27 03:25:30;;;;;;;38.83;20.85;;;;;;;;;;5031505;28;20029;-70
2021/12/27 03:27:56;;;;;;;35.22;20.15;;;;;;;;;;5031365;28;20512;-69
2021/12/27 03:30:24;;;;;;;25.73;14.55;;;;;;;;;;5031173;28;20112;-69
2021/12/27 03:32:51;;;;;;;28.00;16.70;;;;;;;;;;5029594;28;20095;-68
2021/12/27 03:35:25;;;;;;;29.60;18.85;;;;;;;;;;5031333;28;20048;-68
2021/12/27 03:37:56;;;;;;;32.53;18.98;;;;;;;;;;5031494;28;20036;-69
2021/12/27 03:40:23;;;;;;;29.38;18.02;;;;;;;;;;5031092;28;20036;-69
2021/12/27 03:42:50;;;;;;;36.58;22.65;;;;;;;;;;5031036;28;20171;-69
2021/12/27 03:45:19;;;;;;;32.40;19.20;;;;;;;;;;5031333;28;20046;-68
2021/12/27 03:47:45;;;;;;;31.10;20.27;;;;;;;;;;5030258;28;20116;-69
2021/12/27 03:50:11;;;;;;;36.95;20.27;;;;;;;;;;5031722;28;20033;-69
2021/12/27 03:52:37;;;;;;;38.78;20.33;;;;;;;;;;5032984;28;20036;-68
2021/12/27 03:55:07;;;;;;;31.95;21.45;;;;;;;;;;5034971;28;20045;-68
2021/12/27 03:57:35;;;;;;;34.72;21.13;;;;;;;;;;5037569;28;20046;-69
2021/12/27 04:00:31;;;;;;;37.35;21.08;;;;;;;;;;5034826;28;20468;-68
2021/12/27 04:02:54;;;;;;;40.92;22.05;;;;;;;;;;5034711;28;20065;-69
2021/12/27 04:05:22;;;;;;;36.88;21.38;;;;;;;;;;5038087;28;20057;-69
2021/12/27 04:07:56;;;;;;;36.40;23.08;;;;;;;;;;5035182;28;20026;-68
2021/12/27 04:10:22;;;;;;;32.70;20.35;;;;;;;;;;5034802;28;20060;-68
2021/12/27 04:12:48;;;;;;;41.67;21.88;;;;;;;;;;5038628;28;20035;-69
2021/12/27 04:15:14;;;;;;;35.38;21.45;;;;;;;;;;5053286;28;20033;-69
2021/12/27 04:17:39;;;;;;;40.92;22.23;;;;;;;;;;5034654;28;20036;-70
2021/12/27 04:20:06;;;;;;;36.92;21.63;;;;;;;;;;5034710;28;20488;-73
2021/12/27 04:22:33;;;;;;;38.42;21.35;;;;;;;;;;5034682;28;20035;-70
2021/12/27 04:25:00;;;;;;;32.50;21.05;;;;;;;;;;5034291;28;20498;-69
2021/12/27 04:27:26;;;;;;;48.78;24.88;;;;;;;;;;5032992;28;20381;-69
2021/12/27 04:29:53;;;;;;;52.05;24.85;;;;;;;;;;5034310;28;20065;-68
2021/12/27 04:32:19;;;;;;;51.25;24.65;;;;;;;;;;5034238;28;20396;-69
2021/12/27 04:34:45;;;;;;;43.78;21.88;;;;;;;;;;5032479;28;20036;-68
2021/12/27 04:37:10;;;;;;;35.72;21.13;;;;;;;;;;5033893;28;20029;-68
2021/12/27 04:39:36;;;;;;;34.85;21.55;;;;;;;;;;5033680;28;20045;-69
2021/12/27 04:42:04;;;;;;;40.97;23.80;;;;;;;;;;5033985;28;20040;-70
2021/12/27 04:44:30;;;;;;;42.45;22.52;;;;;;;;;;5019399;28;20040;-69
2021/12/27 04:46:56;;;;;;;43.60;23.48;;;;;;;;;;5014564;28;20026;-69
2021/12/27 04:49:22;;;;;;;40.63;23.88;;;;;;;;;;5014187;28;20271;-70
2021/12/27 04:51:48;;;;;;;41.78;22.10;;;;;;;;;;5022184;28;20036;-69
2021/12/27 04:54:14;;;;;;;38.30;22.42;;;;;;;;;;5034054;28;20490;-69
2021/12/27 04:56:40;;;;;;;36.58;21.95;;;;;;;;;;5033628;28;20032;-69
2021/12/27 04:59:06;;;;;;;34.10;20.75;;;;;;;;;;5023950;28;20108;-70
2021/12/27 05:01:32;;;;;;;35.92;20.88;;;;;;;;;;5014029;28;20156;-68
2021/12/27 05:03:57;;;;;;;29.05;18.75;;;;;;;;;;5012700;28;20060;-69
2021/12/27 05:06:24;;;;;;;33.72;22.40;;;;;;;;;;5024545;28;20048;-70
2021/12/27 05:08:53;;;;;;;34.85;19.85;;;;;;;;;;5014346;28;20038;-66
2021/12/27 05:11:19;;;;;;;33.75;19.13;;;;;;;;;;5013471;28;20038;-68
2021/12/27 05:13:45;;;;;;;31.33;18.50;;;;;;;;;;5025313;28;20484;-69
2021/12/27 05:16:11;;;;;;;38.83;21.15;;;;;;;;;;5013690;28;20045;-70
2021/12/27 05:18:37;;;;;;;38.30;20.58;;;;;;;;;;5012631;28;20108;-69
2021/12/27 05:21:03;;;;;;;29.50;18.98;;;;;;;;;;5012787;28;20101;-71
2021/12/27 05:23:30;;;;;;;47.75;21.83;;;;;;;;;;5013465;28;20038;-69
2021/12/27 05:25:56;;;;;;;40.78;21.90;;;;;;;;;;5013720;28;20408;-71
2021/12/27 05:28:22;;;;;;;50.03;23.02;;;;;;;;;;5022663;28;20045;-71
2021/12/27 05:30:51;;;;;;;42.42;22.55;;;;;;;;;;5033818;28;20350;-70
2021/12/27 05:33:20;;;;;;;53.40;24.48;;;;;;;;;;5033821;28;20041;-70
2021/12/27 05:35:46;;;;;;;53.10;25.17;;;;;;;;;;5032248;28;20029;-69
2021/12/27 05:38:13;;;;;;;55.70;27.13;;;;;;;;;;5032496;28;20025;-69
2021/12/27 05:40:39;;;;;;;48.88;23.75;;;;;;;;;;5032504;28;20026;-68
2021/12/27 05:43:06;;;;;;;40.50;23.30;;;;;;;;;;5033313;28;20037;-68
2021/12/27 05:45:34;;;;;;;44.25;24.48;;;;;;;;;;5033452;28;20440;-68
2021/12/27 05:48:00;;;;;;;45.50;26.23;;;;;;;;;;5033729;28;20075;-69
2021/12/27 05:50:26;;;;;;;42.78;26.30;;;;;;;;;;5033526;28;20021;-69
2021/12/27 05:52:52;;;;;;;54.55;27.42;;;;;;;;;;5033668;28;20124;-68
2021/12/27 05:55:19;;;;;;;49.88;24.23;;;;;;;;;;5038556;28;20109;-70
2021/12/27 05:57:44;;;;;;;47.85;25.85;;;;;;;;;;5033808;28;20392;-69
2021/12/27 06:00:12;;;;;;;52.05;27.88;;;;;;;;;;5033771;28;20116;-71
2021/12/27 06:02:42;;;;;;;50.63;28.40;;;;;;;;;;5033557;28;20118;-69
2021/12/27 06:05:09;;;;;;;52.80;28.13;;;;;;;;;;5033374;28;20121;-70
2021/12/27 06:07:36;;;;;;;56.33;28.50;;;;;;;;;;5033384;28;20021;-69
2021/12/27 06:10:03;;;;;;;57.10;27.77;;;;;;;;;;5033357;28;20049;-71
2021/12/27 06:12:29;;;;;;;52.90;30.33;;;;;;;;;;5033163;28;20431;-68
2021/12/27 06:14:55;;;;;;;53.75;29.58;;;;;;;;;;5033070;28;20037;-68
2021/12/27 06:17:20;;;;;;;62.47;29.05;;;;;;;;;;5033399;28;20451;-69
2021/12/27 06:19:46;;;;;;;48.92;27.92;;;;;;;;;;5032707;28;20468;-70
2021/12/27 06:22:12;;;;;;;45.13;27.77;;;;;;;;;;5032968;28;20032;-71
2021/12/27 06:24:38;;;;;;;49.78;30.75;;;;;;;;;;5033155;28;20029;-70
2021/12/27 06:27:04;;;;;;;56.15;30.83;;;;;;;;;;5032747;28;20042;-69
2021/12/27 06:29:30;;;;;;;52.60;30.30;;;;;;;;;;5032890;28;20055;-70
2021/12/27 06:31:56;;;;;;;51.42;33.50;;;;;;;;;;5032638;28;20049;-70
2021/12/27 06:34:22;;;;;;;51.92;32.03;;;;;;;;;;5032957;28;20037;-70
2021/12/27 06:36:47;;;;;;;55.70;30.73;;;;;;;;;;5030053;28;20013;-69
2021/12/27 06:39:13;;;;;;;56.13;32.42;;;;;;;;;;5013165;28;20459;-71
2021/12/27 06:41:41;;;;;;;51.78;30.48;;;;;;;;;;5013247;28;20096;-69
2021/12/27 06:44:07;;;;;;;53.20;31.00;;;;;;;;;;5017622;28;20033;-69
2021/12/27 06:46:33;;;;;;;48.97;30.17;;;;;;;;;;5032218;28;20071;-69
2021/12/27 06:48:58;;;;;;;48.45;30.40;;;;;;;;;;5030938;28;20037;-67
2021/12/27 06:51:24;;;;;;;51.25;30.35;;;;;;;;;;5031897;28;20032;-69
2021/12/27 06:53:50;;;;;;;56.50;32.05;;;;;;;;;;5032241;28;20496;-69
2021/12/27 06:56:16;;;;;;;63.25;35.58;;;;;;;;;;5031726;28;20053;-69
2021/12/27 06:58:42;;;;;;;56.85;29.55;;;;;;;;;;5031977;28;20053;-70
2021/12/27 07:01:08;;;;;;;52.67;29.60;;;;;;;;;;5032187;28;20049;-69
2021/12/27 07:03:34;;;;;;;45.53;27.17;;;;;;;;;;5032119;28;20040;-70
2021/12/27 07:06:00;;;;;;;51.25;28.35;;;;;;;;;;5024803;28;20022;-70
2021/12/27 07:08:27;;;;;;;53.13;26.92;;;;;;;;;;5012163;28;20030;-70
2021/12/27 07:10:53;;;;;;;46.22;27.10;;;;;;;;;;5011780;28;20030;-71
2021/12/27 07:13:19;;;;;;;47.38;27.48;;;;;;;;;;5011882;28;20113;-69
2021/12/27 07:15:45;;;;;;;45.85;28.80;;;;;;;;;;5012276;28;20097;-69
2021/12/27 07:18:16;;;;;;;44.72;28.58;;;;;;;;;;5012204;28;20057;-70
2021/12/27 07:20:42;;;;;;;53.58;30.40;;;;;;;;;;5011903;28;20040;-70
2021/12/27 07:23:08;;;;;;;47.47;30.05;;;;;;;;;;5012140;28;20124;-69
2021/12/27 07:25:34;;;;;;;61.25;32.90;;;;;;;;;;5012295;28;20058;-74
2021/12/27 07:28:00;;;;;;;66.95;33.88;;;;;;;;;;5013906;28;20053;-69
2021/12/27 07:30:28;;;;;;;59.05;31.73;;;;;;;;;;5049890;28;20480;-70
2021/12/27 07:32:55;;;;;;;46.92;29.95;;;;;;;;;;5052725;28;20036;-69
2021/12/27 07:35:22;;;;;;;61.35;32.05;;;;;;;;;;5035413;28;20057;-71
2021/12/27 07:37:48;;;;;;;58.92;32.95;;;;;;;;;;5034497;28;20057;-70
2021/12/27 07:40:14;;;;;;;78.25;36.97;;;;;;;;;;5035785;28;20068;-68
2021/12/27 07:42:40;;;;;;;73.25;35.00;;;;;;;;;;5035670;28;20100;-67
2021/12/27 07:45:07;;;;;;;65.80;36.60;;;;;;;;;;5035685;28;20029;-70
2021/12/27 07:47:32;;;;;;;58.92;34.15;;;;;;;;;;5035059;28;20104;-70
2021/12/27 07:49:58;;;;;;;58.40;29.90;;;;;;;;;;5035580;28;20164;-70
2021/12/27 07:52:24;;;;;;;52.25;32.25;;;;;;;;;;5035590;28;20037;-69
2021/12/27 07:54:50;;;;;;;47.63;33.00;;;;;;;;;;5035606;28;20111;-69
2021/12/27 07:57:16;;;;;;;55.85;31.27;;;;;;;;;;5035327;28;20091;-68
2021/12/27 07:59:42;;;;;;;47.45;29.85;;;;;;;;;;5035239;28;20092;-69
2021/12/27 08:02:11;;;;;;;42.25;28.48;;;;;;;;;;5034650;28;20018;-69
2021/12/27 08:04:37;;;;;;;51.15;28.42;;;;;;;;;;5035075;28;20112;-70
2021/12/27 08:07:03;;;;;;;41.55;28.60;;;;;;;;;;5038538;28;20017;-69
2021/12/27 08:09:29;;;;;;;52.35;28.83;;;;;;;;;;5054811;28;20043;-70
2021/12/27 08:11:55;;;;;;;36.53;24.63;;;;;;;;;;5054592;28;20409;-71
2021/12/27 08:14:21;;;;;;;29.92;19.33;;;;;;;;;;5054324;28;20041;-70
2021/12/27 08:16:47;;;;;;;32.92;19.23;;;;;;;;;;5055155;28;20031;-70
2021/12/27 08:19:12;;;;;;;31.33;20.45;;;;;;;;;;5054723;28;20120;-70
2021/12/27 08:21:38;;;;;;;31.40;20.80;;;;;;;;;;5054838;28;20063;-70
2021/12/27 08:24:08;;;;;;;36.78;21.25;;;;;;;;;;5055120;28;20033;-70
2021/12/27 08:26:34;;;;;;;36.75;22.40;;;;;;;;;;5054360;28;20075;-70
2021/12/27 08:29:05;;;;;;;32.45;19.38;;;;;;;;;;5054035;28;20064;-70
2021/12/27 08:31:31;;;;;;;29.67;17.67;;;;;;;;;;5054547;28;20120;-70
2021/12/27 08:33:56;;;;;;;25.63;17.00;;;;;;;;;;5054594;28;20542;-70
2021/12/27 08:36:22;;;;;;;28.13;17.15;;;;;;;;;;5054128;28;20063;-70
2021/12/27 08:38:49;;;;;;;36.72;19.13;;;;;;;;;;5053871;28;20109;-70
2021/12/27 08:41:16;;;;;;;40.22;19.33;;;;;;;;;;5053915;28;20025;-70
2021/12/27 08:43:43;;;;;;;32.58;16.73;;;;;;;;;;5052437;28;20460;-70
2021/12/27 08:46:09;;;;;;;31.65;16.98;;;;;;;;;;5053824;28;20033;-71
2021/12/27 08:48:35;;;;;;;37.30;18.00;;;;;;;;;;5052537;28;20025;-70
2021/12/27 08:51:02;;;;;;;29.27;17.15;;;;;;;;;;5033060;28;20428;-74
2021/12/27 08:53:27;;;;;;;32.97;18.25;;;;;;;;;;5034581;28;20021;-70
2021/12/27 08:55:53;;;;;;;30.95;18.23;;;;;;;;;;5034247;28;20040;-71
2021/12/27 08:58:19;;;;;;;37.17;22.45;;;;;;;;;;5033168;28;20025;-71
2021/12/27 09:00:45;;;;;;;37.90;23.73;;;;;;;;;;5033657;28;20072;-71
2021/12/27 09:03:13;;;;;;;34.85;20.45;;;;;;;;;;5033890;28;20033;-70
2021/12/27 09:05:40;;;;;;;33.42;20.48;;;;;;;;;;5033776;28;20038;-70
2021/12/27 09:08:06;;;;;;;31.48;19.95;;;;;;;;;;5033976;28;20445;-72
2021/12/27 09:10:32;;;;;;;47.25;20.73;;;;;;;;;;5033725;28;20037;-72
2021/12/27 09:13:00;;;;;;;30.77;19.08;;;;;;;;;;5032800;28;20034;-71
2021/12/27 09:15:27;;;;;;;35.97;20.85;;;;;;;;;;5033162;28;20041;-71
2021/12/27 09:17:53;;;;;;;36.55;20.95;;;;;;;;;;5033384;28;20021;-71
2021/12/27 09:20:20;;;;;;;34.00;21.15;;;;;;;;;;5032899;28;20116;-73
2021/12/27 09:22:45;;;;;;;26.83;15.48;;;;;;;;;;5033705;28;20029;-69
2021/12/27 09:25:11;;;;;;;27.38;15.43;;;;;;;;;;5033226;28;20482;-72
2021/12/27 09:27:37;;;;;;;28.55;17.75;;;;;;;;;;5033123;28;20546;-71
2021/12/27 09:30:05;;;;;;;32.85;19.27;;;;;;;;;;5033849;28;20369;-72
2021/12/27 09:32:30;;;;;;;33.95;18.13;;;;;;;;;;5033625;28;20033;-70
2021/12/27 09:34:56;;;;;;;34.03;18.80;;;;;;;;;;5033424;28;20092;-70
2021/12/27 09:37:22;;;;;;;49.90;19.17;;;;;;;;;;5032964;28;20035;-69
2021/12/27 09:39:53;;;;;;;27.63;16.75;;;;;;;;;;5032967;28;20112;-70
2021/12/27 09:42:24;;;;;;;29.02;18.83;;;;;;;;;;5033197;28;20408;-70
2021/12/27 09:44:53;;;;;;;40.35;20.77;;;;;;;;;;5031324;28;20034;-70
2021/12/27 09:47:19;;;;;;;32.45;19.00;;;;;;;;;;5032761;28;20026;-70
2021/12/27 09:49:47;;;;;;;42.28;21.13;;;;;;;;;;5031730;28;20080;-70
2021/12/27 09:52:13;;;;;;;32.58;20.00;;;;;;;;;;5031442;28;20419;-70
2021/12/27 09:54:39;;;;;;;41.95;20.27;;;;;;;;;;5032895;28;20499;-71
2021/12/27 09:57:06;;;;;;;32.92;19.05;;;;;;;;;;5032913;28;20026;-71
2021/12/27 09:59:33;;;;;;;37.97;21.98;;;;;;;;;;5033163;28;20033;-71
2021/12/27 10:01:59;;;;;;;32.38;21.48;;;;;;;;;;5032897;28;20028;-71
2021/12/27 10:04:25;;;;;;;40.35;22.40;;;;;;;;;;5032270;28;20056;-70
2021/12/27 10:06:52;;;;;;;36.83;23.02;;;;;;;;;;5032933;28;20033;-70
2021/12/27 10:09:18;;;;;;;45.58;24.90;;;;;;;;;;5032669;28;20026;-71
2021/12/27 10:11:44;;;;;;;37.83;23.83;;;;;;;;;;5032611;28;20025;-70
2021/12/27 10:14:11;;;;;;;43.03;23.05;;;;;;;;;;5032746;28;20033;-73
2021/12/27 10:16:52;;;;;;;37.90;24.23;;;;;;;;;;5030779;28;20025;-72
2021/12/27 10:19:19;;;;;;;35.20;22.13;;;;;;;;;;5032119;28;20033;-70
2021/12/27 10:21:47;;;;;;;43.50;21.05;;;;;;;;;;5032468;28;20379;-72
2021/12/27 10:24:27;;;;;;;37.75;22.17;;;;;;;;;;5032414;28;20033;-74
2021/12/27 10:26:55;;;;;;;41.45;22.35;;;;;;;;;;5032063;28;20025;-71
2021/12/27 10:29:23;;;;;;;48.53;25.58;;;;;;;;;;5032037;28;20084;-71
2021/12/27 10:31:50;;;;;;;46.20;25.92;;;;;;;;;;5032681;28;20041;-75
2021/12/27 10:34:16;;;;;;;42.45;25.92;;;;;;;;;;5032256;28;20459;-74
2021/12/27 10:37:18;;;;;;;45.55;26.63;;;;;;;;;;5032405;28;20104;-72
2021/12/27 10:39:56;;;;;;;42.60;26.58;;;;;;;;;;5010194;28;20042;-74
2021/12/27 10:42:35;;;;;;;50.58;29.83;;;;;;;;;;5028820;28;20120;-71
2021/12/27 10:45:11;;;;;;;50.10;28.42;;;;;;;;;;5031762;28;20042;-69
2021/12/27 10:47:39;;;;;;;41.85;26.80;;;;;;;;;;5031848;28;20037;-73
2021/12/27 10:50:09;;;;;;;44.92;28.20;;;;;;;;;;5031116;28;20361;-72
2021/12/27 10:52:55;;;;;;;43.08;25.85;;;;;;;;;;5031921;28;20044;-71
2021/12/27 10:55:24;;;;;;;46.17;25.55;;;;;;;;;;5031360;28;20114;-70
2021/12/27 10:57:52;;;;;;;44.90;25.10;;;;;;;;;;5031929;28;20500;-76
2021/12/27 11:00:30;;;;;;;41.13;26.10;;;;;;;;;;5032022;28;20025;-70
2021/12/27 11:02:59;;;;;;;46.70;26.00;;;;;;;;;;5030743;28;20056;-75
2021/12/27 11:05:26;;;;;;;46.53;26.77;;;;;;;;;;5031753;28;20477;-70
2021/12/27 11:08:02;;;;;;;46.10;27.00;;;;;;;;;;5031711;28;20108;-76
2021/12/27 11:10:30;;;;;;;36.22;25.10;;;;;;;;;;5031434;28;20030;-73
2021/12/27 11:12:59;;;;;;;39.05;23.35;;;;;;;;;;5030357;28;20377;-69
2021/12/27 11:15:27;;;;;;;41.92;26.17;;;;;;;;;;5031841;28;20053;-70
2021/12/27 11:17:54;;;;;;;40.03;24.67;;;;;;;;;;5031604;28;20431;-71
2021/12/27 11:20:21;;;;;;;39.95;22.50;;;;;;;;;;5031344;28;20504;-70
2021/12/27 11:22:50;;;;;;;34.72;21.90;;;;;;;;;;5031346;28;20018;-72
2021/12/27 11:25:42;;;;;;;35.67;21.10;;;;;;;;;;5031424;28;20499;-72
2021/12/27 11:28:35;;;;;;;28.77;18.05;;;;;;;;;;5030971;28;20057;-71
2021/12/27 11:31:13;;;;;;;28.65;17.58;;;;;;;;;;5031364;28;20468;-73
2021/12/27 11:33:54;;;;;;;29.20;17.70;;;;;;;;;;5030893;28;20037;-71
2021/12/27 11:36:41;;;;;;;32.40;16.25;;;;;;;;;;5031425;28;20030;-70
2021/12/27 11:39:42;;;;;;;30.35;17.38;;;;;;;;;;5031038;28;20095;-69
2021/12/27 11:42:11;;;;;;;30.88;19.67;;;;;;;;;;5031086;28;20408;-71
2021/12/27 11:44:48;;;;;;;31.13;18.80;;;;;;;;;;5031210;28;20474;-71
2021/12/27 11:47:35;;;;;;;28.88;18.08;;;;;;;;;;5031425;28;20051;-70
2021/12/27 11:50:05;;;;;;;29.30;17.98;;;;;;;;;;5031585;28;20040;-70
2021/12/27 11:52:34;;;;;;;27.73;17.60;;;;;;;;;;5030184;28;20041;-70
2021/12/27 11:55:07;;;;;;;33.70;19.58;;;;;;;;;;5031642;28;20030;-69
2021/12/27 11:57:42;;;;;;;28.90;19.13;;;;;;;;;;5031057;28;20030;-70
2021/12/27 12:00:17;;;;;;;32.88;19.52;;;;;;;;;;5031350;28;20044;-71
2021/12/27 12:02:52;;;;;;;30.00;18.40;;;;;;;;;;5031650;28;20030;-72
2021/12/27 12:05:39;;;;;;;30.90;18.98;;;;;;;;;;5031748;28;20040;-70
2021/12/27 12:08:07;;;;;;;31.77;20.40;;;;;;;;;;5031359;28;20037;-69
2021/12/27 12:10:34;;;;;;;30.77;19.23;;;;;;;;;;5031578;28;20418;-72
2021/12/27 12:13:23;;;;;;;29.33;20.65;;;;;;;;;;5032142;28;20403;-74
2021/12/27 12:15:58;;;;;;;35.22;21.95;;;;;;;;;;5035327;28;20041;-71
2021/12/27 12:18:24;;;;;;;43.38;25.73;;;;;;;;;;5035149;28;20041;-76
2021/12/27 12:20:51;;;;;;;44.45;26.85;;;;;;;;;;5035022;28;20021;-70
2021/12/27 12:23:17;;;;;;;50.40;28.40;;;;;;;;;;5035047;28;20113;-76
2021/12/27 12:25:43;;;;;;;49.75;28.75;;;;;;;;;;5034631;28;20053;-75
2021/12/27 12:28:11;;;;;;;44.70;27.65;;;;;;;;;;5034731;28;20064;-70
2021/12/27 12:30:57;;;;;;;50.70;28.73;;;;;;;;;;5035310;28;20552;-73
2021/12/27 12:33:25;;;;;;;45.33;28.98;;;;;;;;;;5034359;28;20080;-75
2021/12/27 12:35:57;;;;;;;56.78;32.28;;;;;;;;;;5034908;28;20030;-77
2021/12/27 12:38:36;;;;;;;44.25;29.45;;;;;;;;;;5035038;28;20033;-73
2021/12/27 12:41:22;;;;;;;50.05;29.73;;;;;;;;;;5034972;28;20087;-75
2021/12/27 12:43:56;;;;;;;44.88;29.45;;;;;;;;;;5034115;28;20457;-78
2021/12/27 12:46:26;;;;;;;45.33;30.55;;;;;;;;;;5034839;28;20499;-78
2021/12/27 12:49:05;;;;;;;43.53;29.15;;;;;;;;;;5034784;28;20038;-79
2021/12/27 12:51:36;;;;;;;50.90;31.75;;;;;;;;;;5034819;28;20392;-75
2021/12/27 12:54:09;;;;;;;55.92;35.22;;;;;;;;;;5034410;28;20033;-76
2021/12/27 12:56:37;;;;;;;59.17;37.42;;;;;;;;;;5034149;28;20052;-75
2021/12/27 12:59:04;;;;;;;57.78;35.70;;;;;;;;;;5034483;28;20443;-71
2021/12/27 13:01:30;;;;;;;57.75;34.05;;;;;;;;;;5033863;28;20046;-70
2021/12/27 13:03:59;;;;;;;55.17;33.05;;;;;;;;;;5025233;28;20028;-77
2021/12/27 13:06:27;;;;;;;60.10;37.42;;;;;;;;;;5034371;28;20037;-69
2021/12/27 13:08:55;;;;;;;90.97;46.72;;;;;;;;;;5026922;28;20063;-70
2021/12/27 13:11:21;;;;;;;84.32;44.47;;;;;;;;;;5029597;28;20097;-70
2021/12/27 13:13:56;;;;;;;77.93;46.08;;;;;;;;;;5034349;28;20094;-70
2021/12/27 13:16:27;;;;;;;73.82;44.80;;;;;;;;;;5026461;28;20048;-71
2021/12/27 13:18:53;;;;;;;74.18;42.88;;;;;;;;;;5028814;28;20033;-71
2021/12/27 13:21:19;;;;;;;64.85;40.00;;;;;;;;;;5025194;28;20464;-71
2021/12/27 13:23:44;;;;;;;71.40;39.13;;;;;;;;;;5017234;28;20038;-70
2021/12/27 13:26:16;;;;;;;67.55;39.80;;;;;;;;;;5030842;28;20133;-70
2021/12/27 13:28:49;;;;;;;52.72;34.28;;;;;;;;;;5033338;28;20033;-69
2021/12/27 13:31:23;;;;;;;44.53;27.93;;;;;;;;;;5034114;28;20293;-70
2021/12/27 13:33:49;;;;;;;42.10;25.27;;;;;;;;;;5033806;28;20345;-72
2021/12/27 13:36:25;;;;;;;31.67;18.65;;;;;;;;;;5033595;28;20416;-69
2021/12/27 13:39:18;;;;;;;21.63;11.93;;;;;;;;;;5031418;28;20384;-69
2021/12/27 13:41:51;;;;;;;15.10;8.05;;;;;;;;;;5029362;28;20049;-71
2021/12/27 13:44:34;;;;;;;10.45;5.38;;;;;;;;;;5033640;28;20034;-67
2021/12/27 13:47:02;;;;;;;8.23;4.35;;;;;;;;;;5033166;28;20041;-68
2021/12/27 13:49:28;;;;;;;9.18;4.40;;;;;;;;;;5033471;28;20418;-69
2021/12/27 13:52:04;;;;;;;8.15;4.38;;;;;;;;;;5033175;28;20148;-70
2021/12/27 13:54:41;;;;;;;7.57;3.67;;;;;;;;;;5033132;28;20033;-69
2021/12/27 13:57:07;;;;;;;8.13;4.90;;;;;;;;;;5033457;28;20095;-67
2021/12/27 13:59:38;;;;;;;8.13;4.60;;;;;;;;;;5033324;28;20112;-70
2021/12/27 14:02:06;;;;;;;6.22;3.63;;;;;;;;;;5033060;28;20033;-70
2021/12/27 14:04:33;;;;;;;6.85;3.40;;;;;;;;;;5032563;28;20021;-69
2021/12/27 14:07:02;;;;;;;7.28;3.30;;;;;;;;;;5029991;28;20025;-68
2021/12/27 14:09:30;;;;;;;10.32;3.70;;;;;;;;;;5030402;28;20036;-69
2021/12/27 14:11:58;;;;;;;20.45;3.60;;;;;;;;;;5027670;28;20202;-72
2021/12/27 14:14:44;;;;;;;6.22;3.22;;;;;;;;;;5028978;28;20033;-75
2021/12/27 14:17:25;;;;;;;6.72;2.90;;;;;;;;;;5028673;28;20507;-73
2021/12/27 14:20:00;;;;;;;10.55;3.78;;;;;;;;;;5031904;28;20045;-74
2021/12/27 14:22:38;;;;;;;10.73;4.00;;;;;;;;;;5039124;28;20040;-69
2021/12/27 14:25:05;;;;;;;14.43;6.35;;;;;;;;;;5051831;28;20040;-75
2021/12/27 14:27:44;;;;;;;10.48;4.13;;;;;;;;;;5051283;28;20053;-69
2021/12/27 14:30:21;;;;;;;7.78;3.58;;;;;;;;;;5051275;28;20032;-74
2021/12/27 14:33:00;;;;;;;5.60;3.70;;;;;;;;;;5051989;28;20041;-72